Strona główna
METAR-TAF:

METAR-TAF

Lotnisko :

Port lotniczy Mauritius

Mauritius, Mauritius

Szerokość geograficzna: 20-26S, Długość geograficzna: 057-40E, wysokość: 55 m

Aktualna obserwacja pogody

Raport powstał 10 minut temu, godzina 12:00 UTC
Wiatr 14 kt od wschód
Temperatura 26°C
Wilgotność 70%
Ciśnienie 1016 hPa
Widzialność 10 km lub więcej
Rozproszone chmury na wysokości 1700 ft
Rozproszone chmury na wysokości 5000 ft

METAR: FIMP 271200Z 10014KT 9999 SCT017 SCT050 26/20 Q1016

czas: 16:10 (12:10 UTC)

Prognoza

Raport powstał 1 godzina i 10 minut temu, godzina 11:00 UTC
Prognoza ważna od 27 godzina 12 UTC do 28 godzina 18 UTC
Wiatr 12 kt od wschodnio-południowy wschód w porywach dochodzący do 25 kt
Widzialność 10 km lub więcej
Przerywane chmury na wysokości 1600 ft
Przejściowo
od 27 godzina 15 UTC do 28 godzina 02 UTC
Widzialność: 7000 m
Mało chmury na wysokości 1000 ft
Przerywane chmury na wysokości 1400 ft
słaby przelotny opad deszczu

TAF: FIMP 271100Z 2712/2818 12012G25KT 9999 BKN016 TEMPO 2715/2802 7000 -SHRA FEW010 BKN014

Obserwacja i prognoza pogody dla ponad 4000 lotnisk (raport METAR i TAF).

Dostępne stacje oznaczono żółtymi i czerwonymi punktami na mapie.

Najedź kursorem aby zobaczyć nazwę stacji.

Kliknij aby zobaczyć obserwacje i prognozy pogody.

Aby zmienić mapę: kliknij na zielony przycisk z czarnym krzyżykiem, aby powiększyć; na zielony przycisk z myślnikiem, aby pomniejszyć; na zielone strzałki, aby przejść do map sąsiednich.


METAR-TAF: